createdAt,value
2019-02-17T00:01:09.250Z,15.17
2019-02-17T00:03:35.905Z,15.15
2019-02-17T00:06:02.581Z,15.15
2019-02-17T00:08:29.293Z,15.16
2019-02-17T00:10:55.991Z,15.16
2019-02-17T00:13:22.689Z,15.11
2019-02-17T00:15:49.413Z,15.20
2019-02-17T00:18:16.095Z,15.19
2019-02-17T00:20:42.738Z,15.18
2019-02-17T00:23:09.443Z,15.17
2019-02-17T00:25:36.106Z,15.18
2019-02-17T00:28:02.776Z,15.15
2019-02-17T00:30:29.447Z,15.18
2019-02-17T00:32:56.158Z,15.17
2019-02-17T00:35:22.843Z,15.16
2019-02-17T00:37:49.500Z,15.20
2019-02-17T00:40:16.146Z,15.30
2019-02-17T00:42:42.858Z,15.28
2019-02-17T00:45:09.523Z,15.26
2019-02-17T00:47:36.168Z,15.27
2019-02-17T00:50:02.826Z,15.23
2019-02-17T00:52:29.496Z,15.22
2019-02-17T00:54:56.228Z,15.14
2019-02-17T00:57:22.881Z,15.16
2019-02-17T00:59:49.542Z,15.16
2019-02-17T01:02:16.198Z,15.11
2019-02-17T01:04:42.868Z,15.14
2019-02-17T01:07:09.645Z,15.17
2019-02-17T01:09:36.436Z,15.12
2019-02-17T01:12:03.102Z,15.11
2019-02-17T01:14:29.790Z,15.17
2019-02-17T01:16:56.459Z,15.13
2019-02-17T01:19:23.165Z,15.15
2019-02-17T01:21:49.823Z,15.12
2019-02-17T01:24:16.476Z,15.13
2019-02-17T01:26:43.142Z,15.10
2019-02-17T01:29:19.796Z,15.12
2019-02-17T01:31:36.494Z,15.08
2019-02-17T01:34:03.148Z,15.12
2019-02-17T01:36:29.797Z,15.11
2019-02-17T01:41:22.770Z,15.09
2019-02-17T01:43:49.415Z,15.10
2019-02-17T01:46:16.114Z,15.14
2019-02-17T01:48:42.790Z,15.19
2019-02-17T01:51:09.628Z,15.26
2019-02-17T01:53:36.296Z,15.23
2019-02-17T01:56:02.951Z,15.22
2019-02-17T01:58:29.627Z,15.18
2019-02-17T02:00:56.292Z,15.17
2019-02-17T02:03:23.006Z,15.15
2019-02-17T02:05:49.651Z,15.07
2019-02-17T02:08:16.313Z,15.04
2019-02-17T02:10:43.012Z,15.04
2019-02-17T02:13:09.687Z,15.07
2019-02-17T02:15:36.340Z,15.06
2019-02-17T02:18:03.003Z,15.09
2019-02-17T02:20:29.666Z,15.06
2019-02-17T02:22:56.341Z,15.09
2019-02-17T02:25:22.982Z,15.07
2019-02-17T02:27:49.675Z,15.05
2019-02-17T02:30:17.600Z,15.05
2019-02-17T02:32:43.067Z,15.06
2019-02-17T02:35:09.699Z,15.03
2019-02-17T02:37:36.405Z,15.09
2019-02-17T02:40:03.057Z,15.06
2019-02-17T02:42:29.896Z,15.08
2019-02-17T02:44:56.599Z,15.05
2019-02-17T02:47:23.306Z,15.03
2019-02-17T02:49:49.925Z,15.05
2019-02-17T02:52:16.627Z,15.02
2019-02-17T02:54:43.279Z,15.01
2019-02-17T02:57:09.939Z,15.04
2019-02-17T02:59:36.635Z,14.98
2019-02-17T03:02:03.334Z,14.98
2019-02-17T03:04:29.974Z,15.00
2019-02-17T03:06:56.633Z,15.03
2019-02-17T03:09:23.294Z,14.99
2019-02-17T03:11:50.022Z,14.99
2019-02-17T03:14:16.749Z,15.00
2019-02-17T03:16:46.227Z,15.01
2019-02-17T03:19:12.900Z,15.06
2019-02-17T03:21:39.571Z,15.18
2019-02-17T03:24:06.285Z,15.16
2019-02-17T03:26:32.945Z,15.16
2019-02-17T03:28:59.606Z,15.17
2019-02-17T03:31:26.300Z,15.15
2019-02-17T03:33:52.946Z,15.09
2019-02-17T03:36:19.593Z,15.05
2019-02-17T03:38:46.271Z,15.04
2019-02-17T03:41:12.936Z,15.06
2019-02-17T03:43:39.604Z,15.01
2019-02-17T03:46:06.243Z,15.01
2019-02-17T03:48:32.964Z,15.05
2019-02-17T03:50:59.605Z,15.01
2019-02-17T03:53:26.279Z,14.99
2019-02-17T03:55:52.954Z,14.99
2019-02-17T03:58:19.641Z,14.99
2019-02-17T04:00:46.288Z,14.99
2019-02-17T04:03:12.953Z,15.00
2019-02-17T04:05:39.602Z,15.02
2019-02-17T04:08:06.267Z,15.06
2019-02-17T04:10:32.984Z,15.13
2019-02-17T04:12:59.704Z,15.16
2019-02-17T04:15:26.361Z,15.16
2019-02-17T04:17:53.023Z,15.11
2019-02-17T04:20:19.737Z,15.04
2019-02-17T04:22:46.462Z,15.01
2019-02-17T04:25:14.221Z,15.03
2019-02-17T04:27:40.861Z,15.03
2019-02-17T04:30:07.566Z,15.03
2019-02-17T04:32:34.283Z,15.03
2019-02-17T04:35:00.918Z,15.00
2019-02-17T04:37:27.650Z,15.00
2019-02-17T04:39:54.301Z,15.00
2019-02-17T04:42:20.943Z,15.00
2019-02-17T04:44:47.643Z,14.99
2019-02-17T04:47:14.287Z,15.00
2019-02-17T04:49:40.968Z,15.00
2019-02-17T04:52:07.637Z,15.02
2019-02-17T04:54:34.318Z,14.98
2019-02-17T04:57:00.979Z,15.00
2019-02-17T04:59:27.693Z,14.98
2019-02-17T05:01:54.361Z,14.97
2019-02-17T05:04:21.038Z,14.97
2019-02-17T05:06:47.683Z,14.95
2019-02-17T05:09:14.423Z,14.98
2019-02-17T05:11:41.183Z,14.95
2019-02-17T05:14:07.864Z,14.98
2019-02-17T05:16:34.545Z,14.98
2019-02-17T05:19:01.265Z,14.98
2019-02-17T05:21:27.914Z,14.97
2019-02-17T05:23:54.631Z,15.00
2019-02-17T05:26:21.308Z,14.95
2019-02-17T05:28:47.978Z,14.98
2019-02-17T05:31:14.682Z,15.09
2019-02-17T05:33:41.353Z,15.16
2019-02-17T05:36:08.053Z,15.11
2019-02-17T05:38:34.718Z,15.09
2019-02-17T05:41:01.423Z,15.01
2019-02-17T05:43:28.132Z,14.96
2019-02-17T05:45:54.791Z,14.85
2019-02-17T05:48:21.456Z,14.82
2019-02-17T05:50:48.148Z,14.76
2019-02-17T05:53:14.832Z,14.71
2019-02-17T05:55:41.487Z,14.73
2019-02-17T05:58:08.237Z,14.77
2019-02-17T06:00:34.901Z,14.48
2019-02-17T06:03:01.547Z,14.40
2019-02-17T06:05:28.378Z,14.56
2019-02-17T06:07:55.026Z,14.43
2019-02-17T06:10:21.760Z,14.08
2019-02-17T06:12:48.386Z,14.40
2019-02-17T06:15:15.044Z,14.70
2019-02-17T06:17:41.743Z,14.94
2019-02-17T06:20:08.408Z,14.96
2019-02-17T06:22:35.144Z,14.82
2019-02-17T06:25:01.791Z,14.63
2019-02-17T06:27:28.522Z,14.57
2019-02-17T06:29:55.209Z,14.50
2019-02-17T06:32:21.873Z,14.46
2019-02-17T06:34:48.538Z,14.47
2019-02-17T06:37:15.253Z,14.40
2019-02-17T06:39:41.958Z,14.41
2019-02-17T06:42:08.645Z,14.36
2019-02-17T06:44:35.311Z,14.34
2019-02-17T06:47:01.965Z,14.29
2019-02-17T06:49:28.653Z,14.36
2019-02-17T06:51:55.368Z,14.39
2019-02-17T06:54:22.037Z,14.41
2019-02-17T06:56:48.701Z,14.41
2019-02-17T06:59:15.355Z,14.44
2019-02-17T07:01:42.060Z,14.42
2019-02-17T07:04:08.714Z,14.43
2019-02-17T07:06:35.383Z,14.46
2019-02-17T07:09:02.029Z,14.41
2019-02-17T07:11:28.796Z,14.42
2019-02-17T07:13:55.430Z,14.40
2019-02-17T07:16:22.133Z,14.39
2019-02-17T07:18:50.635Z,14.42
2019-02-17T07:21:15.423Z,14.45
2019-02-17T07:23:42.086Z,14.49
2019-02-17T07:26:08.735Z,14.44
2019-02-17T07:28:35.441Z,14.49
2019-02-17T07:31:02.099Z,14.52
2019-02-17T07:33:28.762Z,14.56
2019-02-17T07:35:55.416Z,14.50
2019-02-17T07:38:22.124Z,14.59
2019-02-17T07:40:48.783Z,14.63
2019-02-17T07:43:15.444Z,14.66
2019-02-17T07:45:42.154Z,14.67
2019-02-17T07:48:08.906Z,14.73
2019-02-17T07:50:35.611Z,14.74
2019-02-17T07:53:02.256Z,14.79
2019-02-17T07:55:28.908Z,14.80
2019-02-17T07:57:55.579Z,14.85
2019-02-17T08:00:22.226Z,14.82
2019-02-17T08:02:49.608Z,14.86
2019-02-17T08:05:15.617Z,14.93
2019-02-17T08:07:42.315Z,14.93
2019-02-17T08:10:08.974Z,14.94
2019-02-17T08:12:35.690Z,14.96
2019-02-17T08:15:02.346Z,14.98
2019-02-17T08:17:29.006Z,15.00
2019-02-17T08:19:55.673Z,15.08
2019-02-17T08:22:22.333Z,15.04
2019-02-17T08:24:49.052Z,15.09
2019-02-17T08:27:15.712Z,15.11
2019-02-17T08:29:42.355Z,15.17
2019-02-17T08:32:09.029Z,15.17
2019-02-17T08:34:35.691Z,15.20
2019-02-17T08:37:02.360Z,15.21
2019-02-17T08:39:29.027Z,15.28
2019-02-17T08:41:55.671Z,15.30
2019-02-17T08:44:22.315Z,15.28
2019-02-17T08:46:49.029Z,15.31
2019-02-17T08:49:15.678Z,15.32
2019-02-17T08:51:42.497Z,15.36
2019-02-17T08:54:09.165Z,15.34
2019-02-17T08:56:35.811Z,15.36
2019-02-17T08:59:02.516Z,15.38
2019-02-17T09:01:29.183Z,15.38
2019-02-17T09:03:55.854Z,15.38
2019-02-17T09:06:22.514Z,15.40
2019-02-17T09:08:49.213Z,15.38
2019-02-17T09:11:15.872Z,15.39
2019-02-17T09:13:42.591Z,15.40
2019-02-17T09:16:09.244Z,15.41
2019-02-17T09:18:35.904Z,15.43
2019-02-17T09:21:02.607Z,15.41
2019-02-17T09:23:29.269Z,15.44
2019-02-17T09:25:55.969Z,15.43
2019-02-17T09:28:22.614Z,15.49
2019-02-17T09:30:49.286Z,15.46
2019-02-17T09:33:15.941Z,15.47
2019-02-17T09:35:42.591Z,15.48
2019-02-17T09:38:09.256Z,15.52
2019-02-17T09:40:35.911Z,15.52
2019-02-17T09:43:02.611Z,15.57
2019-02-17T09:45:29.281Z,15.60
2019-02-17T09:47:55.961Z,15.61
2019-02-17T09:50:22.680Z,15.63
2019-02-17T09:52:49.342Z,15.64
2019-02-17T09:55:16.045Z,15.67
2019-02-17T09:57:42.761Z,15.64
2019-02-17T10:00:09.413Z,15.71
2019-02-17T10:02:36.224Z,15.68
2019-02-17T10:05:02.876Z,15.68
2019-02-17T10:07:29.524Z,15.67
2019-02-17T10:09:56.190Z,15.72
2019-02-17T10:12:22.897Z,15.65
2019-02-17T10:14:49.553Z,15.71
2019-02-17T10:17:16.230Z,15.70
2019-02-17T10:19:42.894Z,15.72
2019-02-17T10:22:09.573Z,15.69
2019-02-17T10:24:36.233Z,15.72
2019-02-17T10:27:02.898Z,15.70
2019-02-17T10:29:29.559Z,15.73
2019-02-17T10:31:56.272Z,15.71
2019-02-17T10:34:22.925Z,15.75
2019-02-17T10:36:49.603Z,15.71
2019-02-17T10:39:16.251Z,15.75
2019-02-17T10:41:42.946Z,15.71
2019-02-17T10:44:09.686Z,15.75
2019-02-17T10:46:36.267Z,15.75
2019-02-17T10:49:02.919Z,15.78
2019-02-17T10:51:29.601Z,15.75
2019-02-17T10:53:56.339Z,15.75
2019-02-17T10:56:22.968Z,15.79
2019-02-17T10:58:49.626Z,15.78
2019-02-17T11:01:16.284Z,15.82
2019-02-17T11:03:42.955Z,15.81
2019-02-17T11:06:09.651Z,15.80
2019-02-17T11:08:36.315Z,15.79
2019-02-17T11:11:02.972Z,15.83
2019-02-17T11:13:29.681Z,15.89
2019-02-17T11:15:56.359Z,15.83
2019-02-17T11:18:23.022Z,15.81
2019-02-17T11:20:49.973Z,15.85
2019-02-17T11:23:16.620Z,15.83
2019-02-17T11:25:43.286Z,15.83
2019-02-17T11:28:09.967Z,15.95
2019-02-17T11:30:36.622Z,15.82
2019-02-17T11:33:03.311Z,15.81
2019-02-17T11:35:30.077Z,15.83
2019-02-17T11:37:56.691Z,15.86
2019-02-17T11:40:23.376Z,15.87
2019-02-17T11:42:50.033Z,15.90
2019-02-17T11:45:16.678Z,15.93
2019-02-17T11:47:43.349Z,15.99
2019-02-17T11:50:10.023Z,15.98
2019-02-17T11:52:36.692Z,16.04
2019-02-17T11:55:03.347Z,16.05
2019-02-17T11:57:30.076Z,16.08
2019-02-17T11:59:56.726Z,16.04
2019-02-17T12:02:25.231Z,16.08
2019-02-17T12:04:50.103Z,16.09
2019-02-17T12:07:16.750Z,16.09
2019-02-17T12:09:43.428Z,16.06
2019-02-17T12:12:10.075Z,16.06
2019-02-17T12:14:36.742Z,16.05
2019-02-17T12:17:03.407Z,16.03
2019-02-17T12:19:30.097Z,16.04
2019-02-17T12:21:56.752Z,15.99
2019-02-17T12:24:23.470Z,16.01
2019-02-17T12:26:50.159Z,15.97
2019-02-17T12:29:16.807Z,16.00
2019-02-17T12:31:43.473Z,16.00
2019-02-17T12:34:10.120Z,16.02
2019-02-17T12:36:36.848Z,15.99
2019-02-17T12:39:03.501Z,15.95
2019-02-17T12:41:30.178Z,15.98
2019-02-17T12:43:56.894Z,15.98
2019-02-17T12:46:23.634Z,15.94
2019-02-17T12:48:50.280Z,15.92
2019-02-17T12:51:17.040Z,15.90
2019-02-17T12:53:43.701Z,15.87
2019-02-17T12:56:10.367Z,15.86
2019-02-17T12:58:37.088Z,15.83
2019-02-17T13:01:03.818Z,15.86
2019-02-17T13:03:30.489Z,15.84
2019-02-17T13:05:57.142Z,15.84
2019-02-17T13:08:23.808Z,15.86
2019-02-17T13:10:50.518Z,15.84
2019-02-17T13:13:17.179Z,15.85
2019-02-17T13:15:43.854Z,15.84
2019-02-17T13:18:10.517Z,15.85
2019-02-17T13:20:37.198Z,15.83
2019-02-17T13:23:03.882Z,15.83
2019-02-17T13:25:30.587Z,15.80
2019-02-17T13:27:57.248Z,15.80
2019-02-17T13:30:23.895Z,15.75
2019-02-17T13:32:50.625Z,15.74
2019-02-17T13:35:17.271Z,15.73
2019-02-17T13:37:43.980Z,15.74
2019-02-17T13:40:10.641Z,15.70
2019-02-17T13:42:37.302Z,15.71
2019-02-17T13:45:04.032Z,15.66
2019-02-17T13:47:30.740Z,15.69
2019-02-17T13:49:57.409Z,15.67
2019-02-17T13:52:24.099Z,15.67
2019-02-17T13:54:50.780Z,15.64
2019-02-17T13:57:17.538Z,15.67
2019-02-17T13:59:44.183Z,15.60
2019-02-17T14:02:10.830Z,15.61
2019-02-17T14:04:37.498Z,15.61
2019-02-17T14:07:04.165Z,15.60
2019-02-17T14:09:30.878Z,15.62
2019-02-17T14:11:57.539Z,15.66
2019-02-17T14:14:24.229Z,15.26
2019-02-17T14:16:50.882Z,15.71
2019-02-17T14:19:17.601Z,15.76
2019-02-17T14:21:44.259Z,15.66
2019-02-17T14:24:10.911Z,15.63
2019-02-17T14:26:37.602Z,15.52
2019-02-17T14:29:04.250Z,15.56
2019-02-17T14:31:30.964Z,15.54
2019-02-17T14:33:58.798Z,15.44
2019-02-17T14:36:24.341Z,15.44
2019-02-17T14:38:51.015Z,15.43
2019-02-17T14:41:17.731Z,15.38
2019-02-17T14:43:44.395Z,15.36
2019-02-17T14:46:11.050Z,15.35
2019-02-17T14:48:37.690Z,15.32
2019-02-17T14:51:04.353Z,15.31
2019-02-17T14:53:31.060Z,15.30
2019-02-17T14:55:57.712Z,15.27
2019-02-17T14:58:24.480Z,15.28
2019-02-17T15:00:51.133Z,15.23
2019-02-17T15:03:17.785Z,15.23
2019-02-17T15:05:44.453Z,15.18
2019-02-17T15:08:11.103Z,15.18
2019-02-17T15:10:37.778Z,15.16
2019-02-17T15:13:04.435Z,15.18
2019-02-17T15:15:31.105Z,15.09
2019-02-17T15:17:59.080Z,15.14
2019-02-17T15:20:24.487Z,15.06
2019-02-17T15:22:51.130Z,15.09
2019-02-17T15:25:17.774Z,15.06
2019-02-17T15:27:44.496Z,15.10
2019-02-17T15:30:11.149Z,15.06
2019-02-17T15:32:37.844Z,15.03
2019-02-17T15:35:04.471Z,15.05
2019-02-17T15:37:31.143Z,15.07
2019-02-17T15:39:57.795Z,15.11
2019-02-17T15:42:24.559Z,15.09
2019-02-17T15:44:51.221Z,15.11
2019-02-17T15:47:17.888Z,15.08
2019-02-17T15:49:44.552Z,15.06
2019-02-17T15:52:11.254Z,15.04
2019-02-17T15:54:37.919Z,15.05
2019-02-17T15:57:04.614Z,15.03
2019-02-17T15:59:31.282Z,15.06
2019-02-17T16:01:57.933Z,15.03
2019-02-17T16:04:28.511Z,15.08
2019-02-17T16:06:51.296Z,15.06
2019-02-17T16:09:17.949Z,15.12
2019-02-17T16:11:44.600Z,15.04
2019-02-17T16:14:11.242Z,15.13
2019-02-17T16:16:38.000Z,15.06
2019-02-17T16:19:04.815Z,15.19
2019-02-17T16:21:31.474Z,15.08
2019-02-17T16:23:58.123Z,15.18
2019-02-17T16:26:24.840Z,15.14
2019-02-17T16:28:53.705Z,15.18
2019-02-17T16:31:20.362Z,15.19
2019-02-17T16:33:47.046Z,15.22
2019-02-17T16:36:13.763Z,15.20
2019-02-17T16:38:40.474Z,15.28
2019-02-17T16:41:07.125Z,15.25
2019-02-17T16:43:33.827Z,15.29
2019-02-17T16:46:00.497Z,15.29
2019-02-17T16:48:27.231Z,15.38
2019-02-17T16:50:53.929Z,15.33
2019-02-17T16:53:20.638Z,15.33
2019-02-17T16:55:47.287Z,15.37
2019-02-17T16:58:13.955Z,15.39
2019-02-17T17:00:40.759Z,15.37
2019-02-17T17:03:07.467Z,15.43
2019-02-17T17:05:34.113Z,15.43
2019-02-17T17:08:00.814Z,15.40
2019-02-17T17:10:27.485Z,15.45
2019-02-17T17:12:54.625Z,15.44
2019-02-17T17:15:21.270Z,15.46
2019-02-17T17:17:48.132Z,15.50
2019-02-17T17:20:14.602Z,15.50
2019-02-17T17:22:41.261Z,15.50
2019-02-17T17:25:08.050Z,15.49
2019-02-17T17:27:34.707Z,15.53
2019-02-17T17:30:01.354Z,15.56
2019-02-17T17:32:28.076Z,15.56
2019-02-17T17:34:58.885Z,15.59
2019-02-17T17:37:21.444Z,15.63
2019-02-17T17:39:48.110Z,15.64
2019-02-17T17:42:14.755Z,15.62
2019-02-17T17:44:41.427Z,15.62
2019-02-17T17:47:08.080Z,15.70
2019-02-17T17:49:34.750Z,15.67
2019-02-17T17:52:01.417Z,15.70
2019-02-17T17:54:28.219Z,15.74
2019-02-17T17:56:54.875Z,15.70
2019-02-17T17:59:21.532Z,15.74
2019-02-17T18:01:48.204Z,15.73
2019-02-17T18:04:14.879Z,15.75
2019-02-17T18:06:41.542Z,15.71
2019-02-17T18:09:08.255Z,15.82
2019-02-17T18:11:34.912Z,15.78
2019-02-17T18:14:01.628Z,15.80
2019-02-17T18:16:28.334Z,15.77
2019-02-17T18:18:55.006Z,15.84
2019-02-17T18:21:21.657Z,15.79
2019-02-17T18:23:48.314Z,15.81
2019-02-17T18:26:14.978Z,15.79
2019-02-17T18:28:41.634Z,15.80
2019-02-17T18:31:08.290Z,15.79
2019-02-17T18:33:34.994Z,15.81
2019-02-17T18:36:01.643Z,15.78
2019-02-17T18:38:28.373Z,15.84
2019-02-17T18:40:55.055Z,15.81
2019-02-17T18:43:21.702Z,15.86
2019-02-17T18:45:48.523Z,15.86
2019-02-17T18:48:15.235Z,15.91
2019-02-17T18:50:41.906Z,15.88
2019-02-17T18:53:08.563Z,15.89
2019-02-17T18:55:35.228Z,15.87
2019-02-17T18:58:01.944Z,15.91
2019-02-17T19:00:28.585Z,15.92
2019-02-17T19:02:55.233Z,15.96
2019-02-17T19:05:31.558Z,15.97
2019-02-17T19:07:48.639Z,15.95
2019-02-17T19:10:15.299Z,15.97
2019-02-17T19:12:41.944Z,15.96
2019-02-17T19:15:08.672Z,15.95
2019-02-17T19:17:35.292Z,15.97
2019-02-17T19:20:02.013Z,15.99
2019-02-17T19:22:28.709Z,16.02
2019-02-17T19:24:55.421Z,16.00
2019-02-17T19:27:22.064Z,15.99
2019-02-17T19:29:48.787Z,15.96
2019-02-17T19:32:15.436Z,16.02
2019-02-17T19:34:42.102Z,16.04
2019-02-17T19:37:08.848Z,15.98
2019-02-17T19:39:35.522Z,16.01
2019-02-17T19:42:02.225Z,15.99
2019-02-17T19:44:28.880Z,15.91
2019-02-17T19:46:55.560Z,15.93
2019-02-17T19:49:22.226Z,15.92
2019-02-17T19:51:51.635Z,15.92
2019-02-17T19:54:18.294Z,15.94
2019-02-17T19:56:44.946Z,15.95
2019-02-17T19:59:11.617Z,15.92
2019-02-17T20:01:38.275Z,15.93
2019-02-17T20:04:04.943Z,15.89
2019-02-17T20:06:31.637Z,15.92
2019-02-17T20:08:58.371Z,15.94
2019-02-17T20:11:25.023Z,15.88
2019-02-17T20:13:51.715Z,15.95
2019-02-17T20:16:18.434Z,15.94
2019-02-17T20:18:45.120Z,15.95
2019-02-17T20:21:11.765Z,15.90
2019-02-17T20:23:38.481Z,15.91
2019-02-17T20:26:05.140Z,15.92
2019-02-17T20:28:42.781Z,15.92
2019-02-17T20:30:58.488Z,15.92
2019-02-17T20:33:25.133Z,15.90
2019-02-17T20:36:01.805Z,15.95
2019-02-17T20:38:18.437Z,15.93
2019-02-17T20:40:45.161Z,15.87
2019-02-17T20:43:11.817Z,15.90
2019-02-17T20:45:38.518Z,15.93
2019-02-17T20:48:05.190Z,15.94
2019-02-17T20:50:31.846Z,15.96
2019-02-17T20:52:58.565Z,15.91
2019-02-17T20:55:25.232Z,15.96
2019-02-17T20:57:51.965Z,15.97
2019-02-17T21:00:18.558Z,15.98
2019-02-17T21:02:45.268Z,15.96
2019-02-17T21:05:11.969Z,15.94
2019-02-17T21:07:38.690Z,15.93
2019-02-17T21:10:05.343Z,15.96
2019-02-17T21:12:32.042Z,15.97
2019-02-17T21:14:58.750Z,15.97
2019-02-17T21:17:25.398Z,15.95
2019-02-17T21:19:52.115Z,15.92
2019-02-17T21:22:18.784Z,15.95
2019-02-17T21:24:45.434Z,15.96
2019-02-17T21:27:12.139Z,15.99
2019-02-17T21:29:38.792Z,15.95
2019-02-17T21:32:05.457Z,15.95
2019-02-17T21:34:32.125Z,15.95
2019-02-17T21:36:58.829Z,15.99
2019-02-17T21:39:25.496Z,15.96
2019-02-17T21:41:52.198Z,16.02
2019-02-17T21:44:18.872Z,16.02
2019-02-17T21:46:45.527Z,16.03
2019-02-17T21:49:12.328Z,16.05
2019-02-17T21:51:38.992Z,15.97
2019-02-17T21:54:05.669Z,15.98
2019-02-17T21:56:32.331Z,15.96
2019-02-17T21:58:59.011Z,15.96
2019-02-17T22:01:25.729Z,15.97
2019-02-17T22:03:52.516Z,15.99
2019-02-17T22:06:19.226Z,16.00
2019-02-17T22:08:45.907Z,15.99
2019-02-17T22:11:12.556Z,16.01
2019-02-17T22:13:39.252Z,16.02
2019-02-17T22:16:05.901Z,16.06
2019-02-17T22:18:32.610Z,16.20
2019-02-17T22:20:59.262Z,16.36
2019-02-17T22:23:25.971Z,16.40
2019-02-17T22:25:52.632Z,16.45
2019-02-17T22:28:19.398Z,16.34
2019-02-17T22:30:46.048Z,16.22
2019-02-17T22:33:12.718Z,16.20
2019-02-17T22:35:39.514Z,16.08
2019-02-17T22:38:06.162Z,16.09
2019-02-17T22:40:32.922Z,16.06
2019-02-17T22:42:59.609Z,16.03
2019-02-17T22:45:26.251Z,16.05
2019-02-17T22:47:52.984Z,16.01
2019-02-17T22:50:19.636Z,15.98
2019-02-17T22:52:46.325Z,16.01
2019-02-17T22:55:12.966Z,16.02
2019-02-17T22:57:39.636Z,16.00
2019-02-17T23:00:06.282Z,15.95
2019-02-17T23:02:32.990Z,15.96
2019-02-17T23:04:59.653Z,15.94
2019-02-17T23:07:26.343Z,15.95
2019-02-17T23:09:52.988Z,15.96
2019-02-17T23:12:19.631Z,15.96
2019-02-17T23:14:46.307Z,15.94
2019-02-17T23:17:12.965Z,15.94
2019-02-17T23:19:39.631Z,15.96
2019-02-17T23:22:06.284Z,15.94
2019-02-17T23:24:32.983Z,15.93
2019-02-17T23:26:59.642Z,15.95
2019-02-17T23:29:26.336Z,15.94
2019-02-17T23:31:52.987Z,15.97
2019-02-17T23:34:19.725Z,15.95
2019-02-17T23:36:46.391Z,15.94
2019-02-17T23:39:13.053Z,15.93
2019-02-17T23:41:39.725Z,15.92
2019-02-17T23:44:06.384Z,15.94
2019-02-17T23:46:33.128Z,15.91
2019-02-17T23:48:59.788Z,15.89
2019-02-17T23:51:26.537Z,15.88
2019-02-17T23:53:53.196Z,15.89
2019-02-17T23:56:19.862Z,15.90
2019-02-17T23:58:46.508Z,15.88
